Atqasuk Edward Burnell Sr Memorial Airport
PATQ : now visible

Aeroporto :











RITROVATECI SU...

 
LOGIN :

Iscrizione | Disclaimer

   EN    FR    IT 

 









Sommario :    VFR   VFR Marginale   IFR   IFR Intensivo   IFR Molto Intensivo
Visibilità : 
Base nubi : 
>= 8 km
>= 3000ft
5 / 8 km
1000 / 3000 ft
1500m / 5 km
500 / 1000 ft
800 / 1500m
200 / 500 ft
< 800m
< 200 ft
Simboli :   Temporali  Nebbia  Neve Forte  Precipitazioni Forti  Vento > 20 kt






- Altitudine del aeroporto : 96 ft
- Codice IATA : ATK


PATQ - Atqasuk Edward Burnell Sr Memorial

ULTIMO METAR :
  • 300856Z AUTO 21012KT 10SM CLR M21/M23 A3027 RMK AO2 SLP257 T12111233 411611311 58005 FZRANO TSNO

METARs OBSOLETI :
  • 300756Z AUTO 19010KT 10SM CLR M19/M22 A3028 RMK AO2 SLP260 T11941217 FZRANO TSNO
  • 300656Z AUTO 17009KT 10SM CLR M19/M22 A3028 RMK AO2 SLP259 T11941222 FZRANO TSNO

TAF N/A



MetMap, La meteo Aeronautica in un colpo d'occhio ! - Copyright ORBIFLY Dicembre 2007 - Disclaimer

ORBIFLY MET'MAP TEAM :

Programmazione e sviluppo : Alexandra Zaïnal
Concezione : Baudouin d'Aumeries
Aiuto per la programmazione : Marc-Olivier Méhu
Supporto tecnico e logistico : Manuel Goepfert
Aiuto per la traduzione : Arnaldo La Scala

Contatto : metmap@orbifly.com




FONTI E CREDITI :

   NOAA       Earth
Advisory